createdAt,value
2023-04-11T00:03:23.760Z,3.08
2023-04-11T00:08:26.594Z,2.60
2023-04-11T00:13:29.418Z,3.48
2023-04-11T00:18:32.328Z,3.71
2023-04-11T00:23:34.933Z,1.86
2023-04-11T00:28:37.619Z,1.88
2023-04-11T00:33:40.969Z,1.91
2023-04-11T00:38:45.375Z,1.17
2023-04-11T00:43:51.615Z,1.46
2023-04-11T00:48:55.074Z,0.62
2023-04-11T00:53:57.923Z,2.06
2023-04-11T00:59:00.758Z,1.74
2023-04-11T01:04:03.825Z,1.15
2023-04-11T01:09:07.399Z,2.22
2023-04-11T01:14:10.230Z,0.81
2023-04-11T01:19:23.204Z,3.23
2023-04-11T01:24:27.740Z,2.66
2023-04-11T01:29:31.140Z,1.74
2023-04-11T01:34:37.048Z,2.88
2023-04-11T01:39:39.797Z,1.74
2023-04-11T01:44:42.859Z,1.61
2023-04-11T01:49:45.712Z,2.59
2023-04-11T01:54:48.669Z,0.45
2023-04-11T01:59:51.383Z,1.39
2023-04-11T02:04:57.058Z,1.53
2023-04-11T02:10:00.011Z,2.24
2023-04-11T02:15:02.736Z,1.93
2023-04-11T02:20:07.961Z,2.22
2023-04-11T02:25:10.875Z,0.80
2023-04-11T02:30:13.536Z,1.01
2023-04-11T02:35:17.501Z,2.44
2023-04-11T02:40:20.491Z,1.32
2023-04-11T02:45:23.134Z,1.48
2023-04-11T02:50:29.353Z,2.48
2023-04-11T02:55:39.353Z,1.73
2023-04-11T03:00:42.656Z,1.47
2023-04-11T03:05:45.273Z,2.38
2023-04-11T03:10:48.090Z,0.86
2023-04-11T03:16:00.838Z,2.59
2023-04-11T03:21:03.482Z,2.45
2023-04-11T03:26:07.554Z,2.43
2023-04-11T03:31:10.299Z,2.75
2023-04-11T03:36:13.067Z,2.52
2023-04-11T03:41:16.124Z,1.77
2023-04-11T03:46:22.808Z,1.11
2023-04-11T03:51:25.495Z,1.85
2023-04-11T03:56:28.140Z,0.85
2023-04-11T04:01:33.145Z,1.82
2023-04-11T04:06:36.678Z,2.24
2023-04-11T04:11:40.336Z,1.43
2023-04-11T04:16:53.089Z,2.05
2023-04-11T04:21:59.230Z,1.91
2023-04-11T04:27:01.908Z,2.20
2023-04-11T04:32:12.597Z,2.39
2023-04-11T04:37:24.794Z,1.83
2023-04-11T04:42:29.542Z,3.19
2023-04-11T04:47:34.324Z,1.89
2023-04-11T04:52:37.235Z,2.34
2023-04-11T04:57:40.020Z,1.59
2023-04-11T05:02:43.050Z,1.11
2023-04-11T05:07:46.309Z,2.93
2023-04-11T05:12:48.855Z,2.47
2023-04-11T05:17:51.747Z,3.12
2023-04-11T05:22:54.570Z,3.03
2023-04-11T05:27:57.374Z,3.58
2023-04-11T05:33:00.308Z,3.47
2023-04-11T05:38:02.941Z,2.86
2023-04-11T05:43:07.015Z,2.24
2023-04-11T05:48:09.886Z,4.04
2023-04-11T05:53:13.014Z,3.67
2023-04-11T05:58:15.946Z,4.43
2023-04-11T06:03:18.622Z,4.36
2023-04-11T06:08:22.503Z,3.35
2023-04-11T06:13:26.176Z,4.28
2023-04-11T06:18:29.207Z,4.89
2023-04-11T06:23:32.023Z,5.70
2023-04-11T06:28:43.198Z,5.43
2023-04-11T06:33:46.028Z,5.81
2023-04-11T06:38:48.983Z,6.03
2023-04-11T06:44:01.978Z,6.89
2023-04-11T06:49:15.685Z,6.57
2023-04-11T06:54:19.453Z,6.76
2023-04-11T06:59:23.470Z,6.65
2023-04-11T07:04:37.762Z,7.94
2023-04-11T07:09:40.814Z,8.19
2023-04-11T07:14:43.733Z,8.29
2023-04-11T07:19:46.930Z,8.64
2023-04-11T07:24:53.153Z,8.82
2023-04-11T07:29:55.771Z,8.53
2023-04-11T07:34:58.412Z,8.37
2023-04-11T07:40:01.197Z,8.83
2023-04-11T07:45:05.918Z,10.02
2023-04-11T07:50:08.629Z,9.87
2023-04-11T07:55:12.150Z,9.59
2023-04-11T08:00:34.067Z,9.99
2023-04-11T08:05:37.905Z,10.46
2023-04-11T08:10:52.926Z,10.80
2023-04-11T08:15:55.562Z,10.51
2023-04-11T08:20:58.204Z,9.43
2023-04-11T08:26:20.982Z,10.77
2023-04-11T08:31:23.729Z,9.75
2023-04-11T08:36:26.587Z,10.77
2023-04-11T08:41:33.458Z,9.37
2023-04-11T08:46:44.292Z,10.35
2023-04-11T08:51:47.966Z,9.52
2023-04-11T08:56:50.528Z,9.72
2023-04-11T09:01:53.310Z,10.98
2023-04-11T09:07:07.368Z,11.67
2023-04-11T09:12:10.221Z,11.59
2023-04-11T09:17:17.959Z,11.16
2023-04-11T09:22:20.768Z,11.40
2023-04-11T09:27:25.933Z,11.44
2023-04-11T09:32:34.178Z,10.86
2023-04-11T09:37:44.910Z,11.62
2023-04-11T09:43:02.974Z,12.03
2023-04-11T09:48:06.321Z,11.36
2023-04-11T09:53:11.826Z,11.52
2023-04-11T09:58:14.986Z,10.51
2023-04-11T10:03:21.102Z,11.57
2023-04-11T10:08:31.374Z,11.75
2023-04-11T10:13:44.321Z,12.51
2023-04-11T10:18:52.943Z,12.43
2023-04-11T10:24:18.400Z,11.28
2023-04-11T10:29:41.390Z,12.49
2023-04-11T10:34:56.521Z,12.62
2023-04-11T10:40:01.512Z,12.58
2023-04-11T10:45:25.593Z,12.44
2023-04-11T10:50:28.136Z,12.47
2023-04-11T10:55:46.076Z,12.52
2023-04-11T11:00:52.344Z,12.41
2023-04-11T11:06:06.693Z,12.25
2023-04-11T11:11:10.916Z,12.40
2023-04-11T11:16:25.164Z,12.41
2023-04-11T11:21:29.140Z,12.25
2023-04-11T11:26:41.552Z,11.96
2023-04-11T11:31:49.046Z,12.95
2023-04-11T11:36:54.735Z,13.17
2023-04-11T11:41:58.642Z,12.00
2023-04-11T11:47:15.970Z,13.06
2023-04-11T11:52:43.545Z,12.92
2023-04-11T11:57:47.808Z,12.81
2023-04-11T12:03:01.442Z,12.49
2023-04-11T12:08:06.849Z,12.92
2023-04-11T12:13:14.899Z,13.25
2023-04-11T12:18:20.570Z,13.23
2023-04-11T12:23:24.173Z,12.76
2023-04-11T12:28:27.363Z,12.71
2023-04-11T12:33:33.559Z,13.01
2023-04-11T12:38:36.466Z,13.22
2023-04-11T12:43:39.503Z,11.76
2023-04-11T12:48:42.116Z,13.24
2023-04-11T12:53:45.914Z,12.77
2023-04-11T12:58:48.487Z,13.09
2023-04-11T13:03:51.416Z,13.54
2023-04-11T13:08:57.795Z,12.40
2023-04-11T13:14:00.521Z,13.85
2023-04-11T13:19:03.277Z,13.18
2023-04-11T13:24:06.183Z,12.78
2023-04-11T13:29:08.867Z,13.23
2023-04-11T13:34:11.734Z,13.99
2023-04-11T13:39:15.271Z,13.74
2023-04-11T13:44:17.912Z,12.73
2023-04-11T13:49:20.467Z,13.54
2023-04-11T13:54:33.326Z,13.44
2023-04-11T13:59:36.753Z,13.61
2023-04-11T14:04:39.334Z,13.18
2023-04-11T14:09:42.948Z,13.70
2023-04-11T14:14:45.966Z,13.25
2023-04-11T14:19:49.215Z,11.79
2023-04-11T14:24:52.573Z,12.65
2023-04-11T14:30:06.684Z,13.69
2023-04-11T14:35:10.419Z,13.98
2023-04-11T14:40:14.497Z,14.08
2023-04-11T14:45:18.238Z,14.01
2023-04-11T14:50:20.835Z,13.34
2023-04-11T14:55:23.658Z,13.12
2023-04-11T15:00:29.159Z,12.72
2023-04-11T15:05:33.435Z,12.16
2023-04-11T15:10:36.412Z,12.12
2023-04-11T15:15:39.035Z,11.77
2023-04-11T15:20:41.832Z,11.22
2023-04-11T15:25:44.428Z,13.12
2023-04-11T15:30:49.627Z,12.76
2023-04-11T15:35:54.834Z,12.75
2023-04-11T15:41:00.182Z,11.28
2023-04-11T15:46:04.890Z,12.68
2023-04-11T15:51:11.944Z,12.34
2023-04-11T15:56:14.989Z,12.35
2023-04-11T16:01:26.043Z,13.11
2023-04-11T16:06:29.136Z,12.44
2023-04-11T16:11:32.190Z,11.07
2023-04-11T16:16:35.207Z,12.92
2023-04-11T16:21:39.709Z,13.17
2023-04-11T16:26:42.366Z,10.78
2023-04-11T16:31:45.126Z,11.53
2023-04-11T16:36:48.056Z,12.55
2023-04-11T16:41:50.661Z,11.95
2023-04-11T16:46:53.502Z,11.20
2023-04-11T16:51:56.078Z,11.66
2023-04-11T16:56:58.732Z,10.63
2023-04-11T17:02:01.777Z,11.80
2023-04-11T17:07:04.684Z,11.22
2023-04-11T17:12:07.501Z,11.25
2023-04-11T17:17:11.317Z,11.49
2023-04-11T17:22:14.026Z,12.66
2023-04-11T17:27:17.091Z,12.24
2023-04-11T17:32:19.717Z,12.30
2023-04-11T17:37:22.274Z,9.70
2023-04-11T17:42:25.019Z,10.66
2023-04-11T17:47:27.695Z,10.34
2023-04-11T17:52:30.653Z,8.93
2023-04-11T17:57:34.034Z,7.82
2023-04-11T18:02:39.095Z,7.26
2023-04-11T18:07:42.776Z,7.71
2023-04-11T18:12:50.433Z,7.35
2023-04-11T18:17:53.356Z,6.97
2023-04-11T18:22:57.058Z,6.61
2023-04-11T18:27:59.965Z,6.21
2023-04-11T18:33:06.325Z,5.15
2023-04-11T18:38:09.114Z,5.89
2023-04-11T18:43:11.890Z,5.89
2023-04-11T18:48:14.578Z,4.45
2023-04-11T18:53:17.468Z,5.47
2023-04-11T18:58:23.655Z,5.48
2023-04-11T19:03:28.844Z,6.39
2023-04-11T19:08:31.956Z,6.43
2023-04-11T19:13:35.315Z,4.03
2023-04-11T19:23:43.081Z,6.08
2023-04-11T19:28:49.406Z,4.59
2023-04-11T19:33:53.555Z,5.52
2023-04-11T19:38:57.451Z,5.45
2023-04-11T19:44:00.927Z,5.56
2023-04-11T19:49:04.406Z,4.52
2023-04-11T19:54:07.715Z,4.39
2023-04-11T19:59:11.250Z,5.53
2023-04-11T20:04:17.027Z,5.78
2023-04-11T20:09:20.558Z,4.67
2023-04-11T20:14:23.924Z,4.36
2023-04-11T20:19:30.581Z,2.78
2023-04-11T20:24:34.113Z,4.86
2023-04-11T20:29:40.234Z,5.21
2023-04-11T20:34:43.619Z,4.82
2023-04-11T20:39:46.994Z,4.88
2023-04-11T20:44:50.432Z,3.21
2023-04-11T20:49:56.915Z,3.38
2023-04-11T20:55:00.826Z,4.84
2023-04-11T21:00:24.105Z,4.97
2023-04-11T21:05:27.446Z,4.71
2023-04-11T21:10:30.705Z,4.91
2023-04-11T21:15:34.819Z,4.12
2023-04-11T21:20:48.224Z,4.86
2023-04-11T21:25:51.632Z,4.60
2023-04-11T21:30:54.918Z,4.03
2023-04-11T21:35:58.392Z,4.38
2023-04-11T21:41:09.179Z,3.53
2023-04-11T21:46:12.577Z,5.02
2023-04-11T21:51:16.954Z,4.34
2023-04-11T21:56:20.285Z,3.83
2023-04-11T22:01:24.977Z,3.94
2023-04-11T22:06:31.193Z,4.04
2023-04-11T22:11:44.744Z,4.52
2023-04-11T22:16:52.177Z,4.05
2023-04-11T22:21:58.323Z,3.96
2023-04-11T22:27:05.011Z,4.47
2023-04-11T22:32:08.828Z,4.71
2023-04-11T22:37:12.107Z,3.47
2023-04-11T22:42:15.460Z,4.19
2023-04-11T22:47:29.724Z,4.24
2023-04-11T22:52:33.565Z,2.95
2023-04-11T22:57:37.437Z,3.62
2023-04-11T23:02:40.768Z,2.00
2023-04-11T23:07:44.060Z,3.67
2023-04-11T23:12:48.152Z,4.38
2023-04-11T23:17:51.621Z,3.60
2023-04-11T23:22:56.263Z,3.87
2023-04-11T23:27:59.785Z,4.23
2023-04-11T23:33:04.074Z,2.59
2023-04-11T23:38:07.743Z,2.96
2023-04-11T23:43:11.104Z,3.70
2023-04-11T23:48:14.527Z,2.83
2023-04-11T23:53:18.654Z,3.91
2023-04-11T23:58:32.093Z,3.60
